Terminal Aerodrome Forecast
Issued by NWS

Home | Current Version | Previous Version | Graphics & Text | Print | Product List | Glossary On
Versions: 1 2 3 4 5 6 7 8 9 10 11 12 13 14 15 16 17 18 19 20 21
000
FTUS43 KMPX 142321
TAFAXN
TAF
KAXN 142321Z 1500/1524 01013G20KT 4SM SHRA OVC025
     FM150500 35014G22KT 6SM -SHRA BR OVC025
     FM150900 33014G19KT P6SM SCT025 OVC035
     FM151300 31008KT P6SM SCT040
     FM151800 27011KT P6SM BKN100=

USA.gov is the U.S. government's official web portal to all federal, state and local government web resources and services.